createdAt,value
2018-04-13T00:00:15.204Z,100358.05
2018-04-13T00:03:18.496Z,100365.29
2018-04-13T00:06:21.829Z,100359.29
2018-04-13T00:09:25.191Z,100360.24
2018-04-13T00:12:28.529Z,100366.98
2018-04-13T00:15:31.904Z,100366.91
2018-04-13T00:18:35.204Z,100362.49
2018-04-13T00:21:39.514Z,100364.10
2018-04-13T00:24:42.852Z,100362.62
2018-04-13T00:27:46.111Z,100366.28
2018-04-13T00:30:49.308Z,100359.39
2018-04-13T00:33:52.765Z,100363.14
2018-04-13T00:36:56.101Z,100365.01
2018-04-13T00:39:59.331Z,100370.95
2018-04-13T00:43:02.638Z,100372.70
2018-04-13T00:46:05.821Z,100374.53
2018-04-13T00:49:09.099Z,100379.21
2018-04-13T00:52:12.355Z,100379.85
2018-04-13T00:55:15.700Z,100384.93
2018-04-13T00:58:18.915Z,100389.11
2018-04-13T01:01:22.147Z,100391.09
2018-04-13T01:04:25.509Z,100392.48
2018-04-13T01:07:28.705Z,100393.87
2018-04-13T01:10:31.964Z,100395.38
2018-04-13T01:13:35.381Z,100395.04
2018-04-13T01:16:38.675Z,100390.22
2018-04-13T01:19:41.874Z,100390.84
2018-04-13T01:22:45.266Z,100394.51
2018-04-13T01:25:48.504Z,100394.53
2018-04-13T01:28:51.739Z,100389.80
2018-04-13T01:31:57.108Z,100391.82
2018-04-13T01:35:00.420Z,100391.46
2018-04-13T01:38:03.616Z,100398.79
2018-04-13T01:41:06.940Z,100392.25
2018-04-13T01:44:10.277Z,100390.41
2018-04-13T01:47:13.537Z,100388.01
2018-04-13T01:50:16.690Z,100383.58
2018-04-13T01:53:20.087Z,100382.06
2018-04-13T01:56:23.368Z,100374.90
2018-04-13T01:59:26.672Z,100383.58
2018-04-13T02:02:29.891Z,100382.15
2018-04-13T02:05:33.167Z,100377.77
2018-04-13T02:08:36.483Z,100379.59
2018-04-13T02:11:40.256Z,100380.34
2018-04-13T02:14:43.579Z,100380.67
2018-04-13T02:17:46.869Z,100376.36
2018-04-13T02:20:51.928Z,100382.12
2018-04-13T02:23:55.107Z,100378.27
2018-04-13T02:26:58.415Z,100387.96
2018-04-13T02:30:01.733Z,100385.48
2018-04-13T02:33:05.046Z,100386.18
2018-04-13T02:36:08.271Z,100384.01
2018-04-13T02:39:11.980Z,100386.50
2018-04-13T02:42:15.194Z,100391.29
2018-04-13T02:45:18.491Z,100395.90
2018-04-13T02:48:21.784Z,100402.33
2018-04-13T02:51:25.129Z,100402.73
2018-04-13T02:54:28.427Z,100408.79
2018-04-13T02:57:31.724Z,100402.07
2018-04-13T03:00:35.088Z,100399.83
2018-04-13T03:03:38.424Z,100403.98
2018-04-13T03:06:41.682Z,100407.84
2018-04-13T03:09:45.072Z,100403.56
2018-04-13T03:12:48.209Z,100400.35
2018-04-13T03:15:51.531Z,100401.32
2018-04-13T03:18:54.911Z,100406.25
2018-04-13T03:21:58.155Z,100410.99
2018-04-13T03:25:01.453Z,100417.00
2018-04-13T03:28:04.800Z,100422.61
2018-04-13T03:31:08.191Z,100422.52
2018-04-13T03:34:11.474Z,100426.82
2018-04-13T03:37:14.736Z,100432.00
2018-04-13T03:40:17.883Z,100428.15
2018-04-13T03:43:21.202Z,100426.98
2018-04-13T03:46:24.494Z,100426.60
2018-04-13T03:49:27.767Z,100432.44
2018-04-13T03:52:30.961Z,100428.55
2018-04-13T03:55:34.174Z,100439.38
2018-04-13T03:58:37.560Z,100440.98
2018-04-13T04:01:40.918Z,100447.83
2018-04-13T04:04:44.228Z,100447.62
2018-04-13T04:07:50.933Z,100453.92
2018-04-13T04:10:54.310Z,100455.81
2018-04-13T04:13:57.522Z,100461.99
2018-04-13T04:17:00.819Z,100472.92
2018-04-13T04:20:15.521Z,100477.69
2018-04-13T04:23:30.402Z,100484.30
2018-04-13T04:26:49.735Z,100488.34
2018-04-13T04:29:53.361Z,100486.79
2018-04-13T04:32:56.590Z,100493.16
2018-04-13T04:35:59.993Z,100496.18
2018-04-13T04:39:03.355Z,100503.34
2018-04-13T04:42:06.637Z,100509.42
2018-04-13T04:45:09.884Z,100526.06
2018-04-13T04:48:13.005Z,100528.52
2018-04-13T04:51:16.273Z,100545.65
2018-04-13T04:54:19.578Z,100551.05
2018-04-13T04:57:22.968Z,100555.12
2018-04-13T05:00:26.283Z,100552.82
2018-04-13T05:03:29.528Z,100563.14
2018-04-13T05:06:32.852Z,100567.55
2018-04-13T05:09:36.100Z,100581.63
2018-04-13T05:12:39.348Z,100580.35
2018-04-13T05:15:42.691Z,100584.59
2018-04-13T05:18:46.027Z,100583.36
2018-04-13T05:21:49.294Z,100583.74
2018-04-13T05:24:52.566Z,100574.94
2018-04-13T05:27:55.836Z,100580.50
2018-04-13T05:30:59.141Z,100579.03
2018-04-13T05:34:02.577Z,100579.79
2018-04-13T05:37:05.736Z,100583.94
2018-04-13T05:40:09.031Z,100585.21
2018-04-13T05:43:12.327Z,100586.63
2018-04-13T05:46:15.626Z,100584.91
2018-04-13T05:49:18.920Z,100584.59
2018-04-13T05:52:22.160Z,100582.82
2018-04-13T05:55:26.637Z,100585.70
2018-04-13T05:58:29.946Z,100587.55
2018-04-13T06:01:33.231Z,100585.11
2018-04-13T06:04:36.540Z,100588.04
2018-04-13T06:07:39.847Z,100586.63
2018-04-13T06:10:43.143Z,100601.38
2018-04-13T06:13:46.523Z,100607.92
2018-04-13T06:16:50.008Z,100607.98
2018-04-13T06:19:53.320Z,100608.41
2018-04-13T06:22:56.904Z,100609.59
2018-04-13T06:26:00.160Z,100609.95
2018-04-13T06:29:03.347Z,100611.57
2018-04-13T06:32:06.723Z,100611.87
2018-04-13T06:35:10.052Z,100618.49
2018-04-13T06:38:13.335Z,100627.36
2018-04-13T06:41:16.572Z,100628.46
2018-04-13T06:44:21.571Z,100624.77
2018-04-13T06:47:24.787Z,100623.21
2018-04-13T06:50:28.287Z,100629.80
2018-04-13T06:53:31.685Z,100632.16
2018-04-13T06:56:34.864Z,100635.74
2018-04-13T06:59:38.081Z,100642.02
2018-04-13T07:02:41.486Z,100651.42
2018-04-13T07:05:44.857Z,100657.73
2018-04-13T07:08:48.067Z,100662.02
2018-04-13T07:11:51.512Z,100654.72
2018-04-13T07:14:54.858Z,100663.29
2018-04-13T07:17:58.021Z,100663.92
2018-04-13T07:21:01.278Z,100663.18
2018-04-13T07:24:04.640Z,100675.64
2018-04-13T07:27:07.884Z,100678.76
2018-04-13T07:30:11.268Z,100676.68
2018-04-13T07:33:14.628Z,100682.15
2018-04-13T07:36:18.096Z,100689.54
2018-04-13T07:39:21.225Z,100696.06
2018-04-13T07:42:24.529Z,100696.48
2018-04-13T07:45:27.836Z,100708.09
2018-04-13T07:48:30.985Z,100712.72
2018-04-13T07:51:34.329Z,100724.90
2018-04-13T07:54:37.633Z,100733.15
2018-04-13T07:57:41.057Z,100747.14
2018-04-13T08:00:44.284Z,100756.39
2018-04-13T08:03:47.600Z,100769.71
2018-04-13T08:06:50.892Z,100771.73
2018-04-13T08:09:54.320Z,100782.34
2018-04-13T08:12:57.793Z,100790.19
2018-04-13T08:16:03.073Z,100793.74
2018-04-13T08:19:06.267Z,100801.88
2018-04-13T08:22:09.609Z,100811.58
2018-04-13T08:25:12.882Z,100824.71
2018-04-13T08:28:16.172Z,100833.59
2018-04-13T08:31:19.492Z,100842.42
2018-04-13T08:34:22.829Z,100831.29
2018-04-13T08:37:26.157Z,100834.18
2018-04-13T08:40:29.552Z,100832.42
2018-04-13T08:43:32.983Z,100838.94
2018-04-13T08:46:36.127Z,100851.06
2018-04-13T08:49:39.602Z,100856.16
2018-04-13T08:52:42.922Z,100855.26
2018-04-13T08:55:46.227Z,100868.79
2018-04-13T08:58:49.598Z,100877.49
2018-04-13T09:01:52.812Z,100882.38
2018-04-13T09:04:56.110Z,100898.47
2018-04-13T09:07:59.507Z,100909.75
2018-04-13T09:11:02.883Z,100921.05
2018-04-13T09:14:06.382Z,100919.76
2018-04-13T09:17:09.668Z,100924.56
2018-04-13T09:20:13.055Z,100931.15
2018-04-13T09:23:16.424Z,100933.23
2018-04-13T09:26:19.622Z,100939.06
2018-04-13T09:29:23.021Z,100940.89
2018-04-13T09:32:26.421Z,100952.06
2018-04-13T09:35:29.689Z,100955.74
2018-04-13T09:38:32.980Z,100963.44
2018-04-13T09:41:36.303Z,100973.94
2018-04-13T09:44:39.584Z,100985.16
2018-04-13T09:47:42.787Z,100994.35
2018-04-13T09:50:46.036Z,101000.97
2018-04-13T09:53:49.375Z,101007.02
2018-04-13T09:56:52.631Z,101018.57
2018-04-13T09:59:55.905Z,101028.71
2018-04-13T10:03:03.530Z,101038.24
2018-04-13T10:06:06.864Z,101048.66
2018-04-13T10:09:10.082Z,101062.67
2018-04-13T10:12:13.351Z,101067.29
2018-04-13T10:15:16.656Z,101076.91
2018-04-13T10:18:19.954Z,101082.65
2018-04-13T10:21:23.256Z,101094.35
2018-04-13T10:24:26.475Z,101096.88
2018-04-13T10:27:29.640Z,101101.19
2018-04-13T10:30:32.958Z,101109.49
2018-04-13T10:33:36.321Z,101113.78
2018-04-13T10:36:39.667Z,101125.05
2018-04-13T10:39:43.061Z,101138.63
2018-04-13T10:42:46.259Z,101143.48
2018-04-13T10:45:49.502Z,101147.03
2018-04-13T10:48:52.857Z,101158.28
2018-04-13T10:51:56.111Z,101160.67
2018-04-13T10:54:59.413Z,101170.31
2018-04-13T10:58:02.945Z,101175.70
2018-04-13T11:01:06.237Z,101185.74
2018-04-13T11:04:09.516Z,101188.40
2018-04-13T11:07:12.943Z,101196.76
2018-04-13T11:10:16.202Z,101200.85
2018-04-13T11:13:19.403Z,101207.86
2018-04-13T11:16:22.578Z,101217.87
2018-04-13T11:19:25.729Z,101223.01
2018-04-13T11:22:29.998Z,101226.02
2018-04-13T11:25:33.320Z,101239.51
2018-04-13T11:28:36.647Z,101236.23
2018-04-13T11:31:39.814Z,101243.58
2018-04-13T11:34:43.119Z,101250.10
2018-04-13T11:37:46.420Z,101255.74
2018-04-13T11:40:49.716Z,101264.52
2018-04-13T11:43:54.045Z,101271.03
2018-04-13T11:46:57.426Z,101278.25
2018-04-13T11:50:00.732Z,101284.98
2018-04-13T11:53:03.953Z,101293.12
2018-04-13T11:56:07.335Z,101295.65
2018-04-13T11:59:10.689Z,101303.67
2018-04-13T12:02:14.006Z,101307.48
2018-04-13T12:05:17.340Z,101312.59
2018-04-13T12:08:20.737Z,101314.77
2018-04-13T12:11:23.932Z,101318.46
2018-04-13T12:14:27.299Z,101323.78
2018-04-13T12:17:30.591Z,101324.38
2018-04-13T12:20:33.914Z,101325.09
2018-04-13T12:23:37.033Z,101332.98
2018-04-13T12:26:40.412Z,101340.45
2018-04-13T12:29:43.689Z,101339.77
2018-04-13T12:32:46.979Z,101339.69
2018-04-13T12:35:51.105Z,101348.93
2018-04-13T12:38:54.407Z,101351.57
2018-04-13T12:41:57.699Z,101350.40
2018-04-13T12:45:01.041Z,101358.81
2018-04-13T12:48:05.242Z,101355.41
2018-04-13T12:51:08.757Z,101365.25
2018-04-13T12:54:12.658Z,101378.11
2018-04-13T12:57:15.862Z,101387.08
2018-04-13T13:00:19.196Z,101389.05
2018-04-13T13:03:22.532Z,101396.92
2018-04-13T13:06:25.753Z,101409.93
2018-04-13T13:09:28.908Z,101409.45
2018-04-13T13:12:32.359Z,101419.58
2018-04-13T13:15:35.612Z,101421.29
2018-04-13T13:18:38.918Z,101424.58
2018-04-13T13:21:42.389Z,101434.21
2018-04-13T13:24:45.795Z,101439.19
2018-04-13T13:27:49.059Z,101441.58
2018-04-13T13:30:53.788Z,101442.11
2018-04-13T13:33:57.364Z,101444.21
2018-04-13T13:37:00.568Z,101447.39
2018-04-13T13:40:03.843Z,101447.86
2018-04-13T13:43:07.047Z,101450.15
2018-04-13T13:46:10.248Z,101446.96
2018-04-13T13:49:13.535Z,101443.96
2018-04-13T13:52:16.873Z,101446.83
2018-04-13T13:55:20.042Z,101451.70
2018-04-13T13:58:23.220Z,101449.83
2018-04-13T14:01:26.324Z,101453.32
2018-04-13T14:04:29.615Z,101459.61
2018-04-13T14:07:32.879Z,101461.06
2018-04-13T14:10:36.084Z,101463.15
2018-04-13T14:13:39.427Z,101467.30
2018-04-13T14:16:42.647Z,101470.25
2018-04-13T14:19:45.900Z,101476.72
2018-04-13T14:22:49.091Z,101478.02
2018-04-13T14:25:52.459Z,101485.06
2018-04-13T14:28:55.692Z,101491.13
2018-04-13T14:31:59.092Z,101498.56
2018-04-13T14:35:02.264Z,101499.44
2018-04-13T14:38:05.537Z,101496.71
2018-04-13T14:41:08.767Z,101498.72
2018-04-13T14:44:12.057Z,101492.56
2018-04-13T14:47:15.350Z,101489.93
2018-04-13T14:50:18.664Z,101485.31
2018-04-13T14:53:21.893Z,101485.21
2018-04-13T14:56:25.258Z,101488.25
2018-04-13T14:59:28.592Z,101483.69
2018-04-13T15:02:31.828Z,101482.16
2018-04-13T15:05:35.176Z,101480.87
2018-04-13T15:08:38.321Z,101484.23
2018-04-13T15:11:41.748Z,101483.80
2018-04-13T15:14:44.965Z,101484.60
2018-04-13T15:17:48.320Z,101490.28
2018-04-13T15:20:51.615Z,101494.40
2018-04-13T15:23:54.870Z,101496.22
2018-04-13T15:26:58.147Z,101500.23
2018-04-13T15:30:01.516Z,101501.05
2018-04-13T15:33:04.795Z,101498.19
2018-04-13T15:36:08.130Z,101509.35
2018-04-13T15:39:11.333Z,101508.24
2018-04-13T15:42:14.646Z,101507.60
2018-04-13T15:45:17.991Z,101508.32
2018-04-13T15:48:21.189Z,101508.12
2018-04-13T15:51:24.525Z,101511.89
2018-04-13T15:54:27.714Z,101500.04
2018-04-13T15:57:31.024Z,101497.21
2018-04-13T16:00:37.361Z,101491.77
2018-04-13T16:03:40.641Z,101488.93
2018-04-13T16:06:44.085Z,101501.93
2018-04-13T16:09:47.335Z,101508.55
2018-04-13T16:12:50.675Z,101517.09
2018-04-13T16:15:53.892Z,101530.71
2018-04-13T16:18:57.240Z,101531.87
2018-04-13T16:22:00.544Z,101531.96
2018-04-13T16:25:03.896Z,101532.48
2018-04-13T16:28:07.234Z,101533.03
2018-04-13T16:31:10.515Z,101535.88
2018-04-13T16:34:13.721Z,101544.15
2018-04-13T16:37:17.125Z,101544.34
2018-04-13T16:40:20.324Z,101544.73
2018-04-13T16:43:23.635Z,101539.94
2018-04-13T16:46:27.131Z,101542.63
2018-04-13T16:49:30.416Z,101546.48
2018-04-13T16:52:33.669Z,101550.45
2018-04-13T16:55:36.849Z,101545.33
2018-04-13T16:58:40.004Z,101551.69
2018-04-13T17:01:43.227Z,101551.34
2018-04-13T17:04:46.607Z,101555.36
2018-04-13T17:07:49.899Z,101556.88
2018-04-13T17:10:53.224Z,101564.21
2018-04-13T17:13:56.624Z,101565.95
2018-04-13T17:16:59.944Z,101569.21
2018-04-13T17:20:03.355Z,101566.54
2018-04-13T17:23:06.491Z,101565.32
2018-04-13T17:26:09.790Z,101567.92
2018-04-13T17:29:13.052Z,101579.62
2018-04-13T17:32:16.212Z,101579.66
2018-04-13T17:35:19.579Z,101587.19
2018-04-13T17:38:22.863Z,101583.51
2018-04-13T17:41:26.120Z,101591.06
2018-04-13T17:44:29.380Z,101586.73
2018-04-13T17:47:32.683Z,101591.88
2018-04-13T17:50:36.009Z,101592.50
2018-04-13T17:53:39.347Z,101594.14
2018-04-13T17:56:42.587Z,101602.18
2018-04-13T17:59:45.848Z,101604.93
2018-04-13T18:02:49.254Z,101611.51
2018-04-13T18:05:52.469Z,101621.25
2018-04-13T18:08:55.792Z,101626.57
2018-04-13T18:11:59.152Z,101630.67
2018-04-13T18:15:02.435Z,101644.91
2018-04-13T18:18:05.764Z,101651.54
2018-04-13T18:21:09.052Z,101659.96
2018-04-13T18:24:12.459Z,101659.42
2018-04-13T18:27:15.739Z,101662.56
2018-04-13T18:30:19.089Z,101663.11
2018-04-13T18:33:22.899Z,101668.96
2018-04-13T18:36:26.372Z,101675.07
2018-04-13T18:39:29.942Z,101678.30
2018-04-13T18:42:33.268Z,101685.05
2018-04-13T18:45:36.547Z,101690.77
2018-04-13T18:48:39.831Z,101688.47
2018-04-13T18:51:43.070Z,101692.25
2018-04-13T18:54:46.436Z,101696.89
2018-04-13T18:57:49.666Z,101697.90
2018-04-13T19:00:53.037Z,101703.82
2018-04-13T19:03:56.306Z,101704.77
2018-04-13T19:06:59.636Z,101717.67
2018-04-13T19:10:02.966Z,101723.35
2018-04-13T19:13:06.317Z,101722.41
2018-04-13T19:16:09.575Z,101721.66
2018-04-13T19:19:12.758Z,101724.31
2018-04-13T19:22:16.160Z,101727.54
2018-04-13T19:25:19.467Z,101728.38
2018-04-13T19:28:22.660Z,101731.43
2018-04-13T19:31:25.980Z,101732.32
2018-04-13T19:34:29.336Z,101733.95
2018-04-13T19:37:32.593Z,101732.00
2018-04-13T19:40:36.907Z,101728.10
2018-04-13T19:43:40.317Z,101736.32
2018-04-13T19:46:43.544Z,101735.55
2018-04-13T19:49:46.695Z,101736.72
2018-04-13T19:52:49.935Z,101737.20
2018-04-13T19:55:53.207Z,101739.88
2018-04-13T19:58:56.543Z,101746.47
2018-04-13T20:01:59.887Z,101748.18
2018-04-13T20:05:03.217Z,101752.44
2018-04-13T20:08:06.515Z,101754.72
2018-04-13T20:11:09.928Z,101754.32
2018-04-13T20:14:22.169Z,101757.00
2018-04-13T20:17:25.399Z,101755.09
2018-04-13T20:20:28.810Z,101755.32
2018-04-13T20:23:32.103Z,101761.73
2018-04-13T20:26:35.467Z,101760.15
2018-04-13T20:29:38.715Z,101758.36
2018-04-13T20:32:41.943Z,101760.67
2018-04-13T20:35:45.116Z,101762.09
2018-04-13T20:38:48.508Z,101765.80
2018-04-13T20:41:51.956Z,101772.92
2018-04-13T20:44:55.467Z,101773.14
2018-04-13T20:47:58.832Z,101773.40
2018-04-13T20:51:02.109Z,101771.88
2018-04-13T20:54:05.420Z,101774.39
2018-04-13T20:57:08.808Z,101774.63
2018-04-13T21:00:12.174Z,101781.02
2018-04-13T21:03:15.472Z,101783.87
2018-04-13T21:06:18.793Z,101787.45
2018-04-13T21:09:22.172Z,101792.26
2018-04-13T21:12:25.431Z,101794.77
2018-04-13T21:15:29.762Z,101793.77
2018-04-13T21:18:33.092Z,101793.78
2018-04-13T21:21:36.392Z,101798.23
2018-04-13T21:24:39.682Z,101797.88
2018-04-13T21:27:43.085Z,101801.97
2018-04-13T21:30:46.557Z,101804.55
2018-04-13T21:33:52.423Z,101805.52
2018-04-13T21:36:55.590Z,101814.93
2018-04-13T21:39:58.981Z,101814.07
2018-04-13T21:43:02.292Z,101821.13
2018-04-13T21:46:05.634Z,101820.95
2018-04-13T21:49:08.936Z,101818.38
2018-04-13T21:52:12.236Z,101824.53
2018-04-13T21:55:15.534Z,101829.61
2018-04-13T21:58:18.860Z,101828.27
2018-04-13T22:01:22.224Z,101830.61
2018-04-13T22:04:25.556Z,101835.99
2018-04-13T22:07:28.878Z,101836.26
2018-04-13T22:10:32.623Z,101837.02
2018-04-13T22:13:35.876Z,101844.48
2018-04-13T22:16:39.713Z,101842.07
2018-04-13T22:19:42.972Z,101840.34
2018-04-13T22:22:46.214Z,101849.77
2018-04-13T22:25:49.619Z,101846.66
2018-04-13T22:28:52.861Z,101844.49
2018-04-13T22:31:56.064Z,101850.93
2018-04-13T22:34:59.408Z,101859.60
2018-04-13T22:38:02.617Z,101866.52
2018-04-13T22:41:06.045Z,101856.95
2018-04-13T22:44:09.316Z,101856.30
2018-04-13T22:47:12.704Z,101859.44
2018-04-13T22:50:16.007Z,101861.62
2018-04-13T22:54:43.725Z,101864.32
2018-04-13T22:57:47.092Z,101871.82
2018-04-13T23:00:50.319Z,101867.52
2018-04-13T23:03:53.615Z,101873.10
2018-04-13T23:06:56.953Z,101869.72
2018-04-13T23:10:00.547Z,101872.30
2018-04-13T23:13:03.881Z,101870.33
2018-04-13T23:16:07.317Z,101878.79
2018-04-13T23:19:10.640Z,101887.10
2018-04-13T23:22:22.767Z,101888.86
2018-04-13T23:25:26.252Z,101889.67
2018-04-13T23:28:29.575Z,101895.53
2018-04-13T23:31:32.911Z,101897.77
2018-04-13T23:34:36.275Z,101900.12
2018-04-13T23:37:39.430Z,101904.84
2018-04-13T23:40:43.575Z,101906.90
2018-04-13T23:43:46.875Z,101911.74
2018-04-13T23:46:50.181Z,101916.18
2018-04-13T23:49:53.484Z,101919.52
2018-04-13T23:52:56.875Z,101916.90
2018-04-13T23:56:00.188Z,101920.25
2018-04-13T23:59:03.472Z,101920.94
